Time;durP1;ratioP1;P1;durP2;ratioP2;P2;SDS_P1;SDS_P2;PMS_P1;PMS_P2;Temp;Humidity;BMP_temperature;BMP_pressure;BME280_temperature;BME280_humidity;BME280_pressure;Samples;Min_cycle;Max_cycle;Signal;HPM_P1;HPM_P2
2021/01/25 00:00:09;;;;;;;8.40;5.63;;;;;;;5.90;89.24;98240.02;124264;1146;22661;-70
2021/01/25 00:02:39;;;;;;;8.20;5.45;;;;;;;5.91;89.04;98247.87;124336;1147;22692;-70
2021/01/25 00:05:07;;;;;;;6.70;5.00;;;;;;;5.90;88.82;98248.95;124191;1146;22681;-69
2021/01/25 00:07:34;;;;;;;7.70;5.20;;;;;;;5.90;89.04;98246.25;124310;1145;22715;-69
2021/01/25 00:10:04;;;;;;;5.90;4.30;;;;;;;5.92;89.19;98248.66;124250;1146;22704;-69
2021/01/25 00:12:32;;;;;;;10.65;5.40;;;;;;;5.93;89.39;98251.11;124241;1146;22731;-69
2021/01/25 00:15:01;;;;;;;7.17;4.73;;;;;;;5.93;89.03;98248.41;124197;1147;22668;-69
2021/01/25 00:17:34;;;;;;;7.37;4.97;;;;;;;5.94;89.24;98250.03;124264;1145;22754;-69
2021/01/25 00:20:03;;;;;;;6.60;4.75;;;;;;;5.95;88.65;98240.04;124208;1147;22699;-68
2021/01/25 00:22:32;;;;;;;8.35;5.00;;;;;;;5.95;89.44;98243.55;124178;1148;22728;-69
2021/01/25 00:24:59;;;;;;;7.35;5.00;;;;;;;5.96;88.54;98241.67;124332;1146;22672;-69
2021/01/25 00:27:26;;;;;;;8.00;5.70;;;;;;;5.96;88.90;98237.08;124286;1147;23355;-69
2021/01/25 00:29:54;;;;;;;7.90;4.70;;;;;;;5.97;88.69;98243.30;124388;1146;22674;-69
2021/01/25 00:32:21;;;;;;;7.15;4.70;;;;;;;5.97;89.33;98241.41;124145;1146;22689;-69
2021/01/25 00:34:49;;;;;;;7.45;5.05;;;;;;;5.89;88.99;98225.69;124386;1146;23881;-69
2021/01/25 00:37:16;;;;;;;5.50;4.15;;;;;;;5.96;88.93;98234.38;124201;1146;22652;-69
2021/01/25 00:39:44;;;;;;;6.15;4.25;;;;;;;5.96;89.15;98228.97;124507;1147;22671;-69
2021/01/25 00:42:11;;;;;;;5.60;3.85;;;;;;;5.98;89.29;98229.53;124316;1148;22676;-69
2021/01/25 00:44:39;;;;;;;5.80;4.33;;;;;;;5.98;88.99;98224.13;124238;1147;23282;-69
2021/01/25 00:47:06;;;;;;;6.15;3.80;;;;;;;5.97;89.62;98211.67;124257;1147;22715;-69
2021/01/25 00:49:34;;;;;;;5.10;3.85;;;;;;;5.94;89.20;98209.48;124288;1146;22711;-69
2021/01/25 00:52:01;;;;;;;6.15;3.95;;;;;;;5.95;88.52;98221.12;124272;1147;22737;-69
2021/01/25 00:54:29;;;;;;;6.50;4.15;;;;;;;5.93;89.07;98213.27;124273;1148;23126;-69
2021/01/25 00:56:56;;;;;;;4.90;3.80;;;;;;;5.94;88.96;98209.48;124108;1148;22689;-69
2021/01/25 00:59:24;;;;;;;6.45;4.35;;;;;;;5.92;88.58;98202.70;124373;1147;23605;-68
2021/01/25 01:01:51;;;;;;;3.95;3.40;;;;;;;5.94;88.64;98195.97;124321;1146;23143;-68
2021/01/25 01:04:19;;;;;;;4.80;3.30;;;;;;;5.94;88.38;98200.56;124211;1146;22676;-68
2021/01/25 01:06:46;;;;;;;8.65;4.20;;;;;;;5.92;88.60;98200.00;124192;1147;23577;-68
2021/01/25 01:09:14;;;;;;;11.40;5.45;;;;;;;5.90;88.70;98207.59;124312;1147;23250;-68
2021/01/25 01:11:41;;;;;;;4.45;3.70;;;;;;;5.87;88.48;98199.95;124474;1145;22753;-68
2021/01/25 01:14:09;;;;;;;6.67;5.43;;;;;;;5.85;88.73;98202.09;124105;1147;22695;-68
2021/01/25 01:16:36;;;;;;;7.00;4.73;;;;;;;5.82;89.27;98198.02;124322;1147;22689;-68
2021/01/25 01:19:03;;;;;;;10.70;5.35;;;;;;;5.82;88.63;98198.02;124214;1147;22744;-68
2021/01/25 01:21:31;;;;;;;9.87;5.87;;;;;;;5.74;88.88;98178.79;124422;1147;23723;-68
2021/01/25 01:23:58;;;;;;;9.90;5.90;;;;;;;5.80;88.99;98191.24;124186;1148;22763;-69
2021/01/25 01:26:26;;;;;;;9.45;5.80;;;;;;;5.79;88.48;98181.50;124324;1147;22709;-68
2021/01/25 01:28:53;;;;;;;8.55;5.15;;;;;;;5.76;88.87;98182.86;124104;1148;22661;-68
2021/01/25 01:31:20;;;;;;;7.80;5.00;;;;;;;5.76;88.58;98188.27;124193;1148;22685;-68
2021/01/25 01:33:48;;;;;;;5.95;3.90;;;;;;;5.77;89.10;98191.78;124195;1148;22762;-68
2021/01/25 01:36:15;;;;;;;5.25;4.40;;;;;;;5.76;89.51;98199.08;124231;1148;24032;-68
2021/01/25 01:38:43;;;;;;;7.55;4.65;;;;;;;5.77;88.77;98194.48;124187;1148;22719;-69
2021/01/25 01:41:10;;;;;;;7.20;5.10;;;;;;;5.76;88.88;98199.08;124413;1147;22716;-68
2021/01/25 01:43:37;;;;;;;7.90;5.60;;;;;;;5.75;89.01;98200.15;124187;1147;23521;-68
2021/01/25 01:46:05;;;;;;;6.67;4.73;;;;;;;5.78;89.38;98196.09;124433;1146;22745;-69
2021/01/25 01:48:33;;;;;;;10.65;5.60;;;;;;;5.79;89.34;98198.53;124231;1148;22686;-68
2021/01/25 01:51:00;;;;;;;6.60;4.70;;;;;;;5.79;89.04;98200.42;124191;1148;22710;-68
2021/01/25 01:53:27;;;;;;;7.45;5.20;;;;;;;5.79;88.88;98198.53;124096;1148;22723;-68
2021/01/25 01:55:55;;;;;;;7.73;5.07;;;;;;;5.80;88.97;98188.54;124399;1146;22744;-68
2021/01/25 01:58:22;;;;;;;6.10;4.70;;;;;;;5.76;89.10;98190.97;124250;1147;23356;-68
2021/01/25 02:00:50;;;;;;;7.50;5.13;;;;;;;5.74;88.86;98190.41;124171;1146;22700;-68
2021/01/25 02:03:19;;;;;;;7.05;5.15;;;;;;;5.74;89.32;98178.79;124251;1147;22723;-68
2021/01/25 02:05:46;;;;;;;6.65;5.55;;;;;;;5.73;89.44;98187.97;124361;1145;22702;-68
2021/01/25 02:08:14;;;;;;;8.65;5.90;;;;;;;5.72;88.71;98195.26;124257;1148;22800;-68
2021/01/25 02:10:41;;;;;;;7.00;5.00;;;;;;;5.70;89.55;98197.40;124106;1148;22670;-68
2021/01/25 02:13:09;;;;;;;7.25;5.20;;;;;;;5.69;89.27;98191.17;124279;1147;22758;-68
2021/01/25 02:15:36;;;;;;;8.03;5.43;;;;;;;5.71;89.42;98195.52;124340;1147;22699;-68
2021/01/25 02:18:04;;;;;;;6.80;5.30;;;;;;;5.71;89.38;98196.33;124144;1147;22717;-68
2021/01/25 02:20:40;;;;;;;9.33;5.23;;;;;;;5.70;89.35;98205.50;124176;1147;22771;-68
2021/01/25 02:23:23;;;;;;;6.87;5.65;;;;;;;5.70;89.04;98197.40;124219;1147;22769;-68
2021/01/25 02:26:12;;;;;;;7.90;5.85;;;;;;;5.70;89.09;98202.80;124197;1146;22680;-68
2021/01/25 02:28:40;;;;;;;7.20;5.97;;;;;;;5.71;89.74;98204.44;124310;1147;22711;-68
2021/01/25 02:31:09;;;;;;;7.70;6.20;;;;;;;5.63;89.11;98184.09;124161;1147;22713;-68
2021/01/25 02:33:39;;;;;;;7.23;5.80;;;;;;;5.71;88.81;98201.73;124357;1147;22680;-68
2021/01/25 02:36:07;;;;;;;6.30;4.95;;;;;;;5.71;89.18;98204.44;124131;1147;22684;-68
2021/01/25 02:38:34;;;;;;;11.05;6.05;;;;;;;5.69;88.85;98210.09;124344;1147;22757;-68
2021/01/25 02:41:01;;;;;;;9.50;6.95;;;;;;;5.69;89.40;98212.80;124215;1146;22724;-68
2021/01/25 02:43:29;;;;;;;9.30;6.65;;;;;;;5.67;88.82;98211.42;124289;1147;23456;-68
2021/01/25 02:45:56;;;;;;;8.20;6.10;;;;;;;5.66;89.62;98209.79;124141;1147;22666;-68
2021/01/25 02:48:24;;;;;;;8.75;6.30;;;;;;;5.65;89.02;98208.97;124321;1146;23831;-68
2021/01/25 02:50:51;;;;;;;11.20;7.00;;;;;;;5.65;89.05;98208.97;124141;1147;23351;-68
2021/01/25 02:53:19;;;;;;;8.70;6.37;;;;;;;5.64;89.45;98228.95;124684;1144;22747;-68
2021/01/25 02:55:47;;;;;;;9.87;6.70;;;;;;;5.64;89.65;98225.44;124662;1142;22691;-68
2021/01/25 02:58:14;;;;;;;8.90;6.40;;;;;;;5.65;89.70;98214.38;124495;1144;22693;-68
2021/01/25 03:00:42;;;;;;;7.45;5.85;;;;;;;5.65;88.99;98227.89;124671;1144;23298;-68
2021/01/25 03:03:09;;;;;;;8.20;6.05;;;;;;;5.65;89.11;98224.38;124458;1144;22701;-68
2021/01/25 03:05:36;;;;;;;10.10;6.30;;;;;;;5.65;89.37;98225.19;124688;1142;23605;-68
2021/01/25 03:08:04;;;;;;;16.35;7.00;;;;;;;5.65;88.95;98218.97;124352;1144;22776;-68
2021/01/25 03:10:31;;;;;;;9.90;7.40;;;;;;;5.60;89.53;98219.76;124488;1145;22669;-69
2021/01/25 03:13:06;;;;;;;9.45;6.55;;;;;;;5.60;89.01;98224.34;124487;1144;22779;-69
2021/01/25 03:15:34;;;;;;;8.30;5.70;;;;;;;5.59;89.05;98223.53;124695;1144;23192;-69
2021/01/25 03:18:05;;;;;;;8.67;6.57;;;;;;;5.61;89.66;98220.58;124505;1143;23277;-69
2021/01/25 03:20:32;;;;;;;8.40;6.40;;;;;;;5.59;89.49;98218.13;124707;1144;22669;-69
2021/01/25 03:23:00;;;;;;;8.30;6.03;;;;;;;5.60;89.39;98210.84;124582;1144;22739;-69
2021/01/25 03:25:27;;;;;;;8.65;6.50;;;;;;;5.61;89.37;98205.18;124811;1142;22763;-69
2021/01/25 03:27:55;;;;;;;10.05;6.45;;;;;;;5.62;89.24;98203.30;124460;1144;22665;-69
2021/01/25 03:30:22;;;;;;;8.60;6.30;;;;;;;5.61;89.20;98198.96;124580;1144;22702;-69
2021/01/25 03:32:49;;;;;;;10.50;6.80;;;;;;;5.61;89.67;98207.06;124466;1142;22691;-69
2021/01/25 03:35:17;;;;;;;11.50;6.90;;;;;;;5.61;89.60;98201.66;124692;1144;22710;-69
2021/01/25 03:37:44;;;;;;;8.85;6.50;;;;;;;5.60;89.33;98200.03;124593;1143;22708;-70
2021/01/25 03:40:12;;;;;;;10.70;6.80;;;;;;;5.59;89.13;98190.30;124626;1144;22690;-69
2021/01/25 03:42:39;;;;;;;10.90;6.50;;;;;;;5.58;89.96;98180.56;124713;1144;22702;-69
2021/01/25 03:45:07;;;;;;;10.15;6.30;;;;;;;5.57;89.77;98178.92;124675;1142;22712;-69
2021/01/25 03:47:34;;;;;;;10.45;6.55;;;;;;;5.56;88.83;98180.00;124714;1143;22660;-69
2021/01/25 03:50:02;;;;;;;8.75;6.65;;;;;;;5.54;88.79;98174.03;124497;1142;22794;-69
2021/01/25 03:52:31;;;;;;;10.30;6.15;;;;;;;5.52;88.67;98168.08;124703;1144;22702;-69
2021/01/25 03:54:58;;;;;;;10.75;6.25;;;;;;;5.53;89.41;98175.92;124544;1143;22693;-69
2021/01/25 03:57:26;;;;;;;9.75;5.95;;;;;;;5.53;88.90;98172.41;124598;1144;22697;-69
2021/01/25 03:59:54;;;;;;;8.80;6.25;;;;;;;5.53;89.39;98170.52;124471;1144;22692;-69
2021/01/25 04:02:21;;;;;;;6.70;5.40;;;;;;;5.52;88.61;98168.89;124710;1144;22764;-69
2021/01/25 04:04:49;;;;;;;11.20;6.60;;;;;;;5.52;88.96;98176.17;124499;1142;25818;-69
2021/01/25 04:07:16;;;;;;;8.70;6.10;;;;;;;5.54;89.57;98179.44;120664;1144;22924;-69
2021/01/25 04:09:43;;;;;;;7.90;6.10;;;;;;;5.52;89.30;98176.99;119861;1145;23014;-68
2021/01/25 04:12:11;;;;;;;8.07;6.53;;;;;;;5.52;88.85;98179.69;124567;1144;22780;-69
2021/01/25 04:14:39;;;;;;;7.80;6.40;;;;;;;5.52;89.27;98181.58;124486;1144;22691;-69
2021/01/25 04:17:07;;;;;;;10.85;6.80;;;;;;;5.50;89.09;98184.53;124755;1143;22674;-69
2021/01/25 04:19:35;;;;;;;9.65;6.60;;;;;;;5.49;89.15;98171.28;124561;1144;23910;-69
2021/01/25 04:22:02;;;;;;;10.30;6.37;;;;;;;5.48;88.56;98169.68;124732;1143;22665;-69
2021/01/25 04:24:30;;;;;;;12.45;7.65;;;;;;;5.49;88.79;98179.39;124625;1143;22687;-67
2021/01/25 04:26:58;;;;;;;11.47;8.03;;;;;;;5.45;89.29;98171.01;124635;1144;22767;-67
2021/01/25 04:29:25;;;;;;;13.20;9.20;;;;;;;5.44;89.09;98176.66;121859;1144;23014;-69
2021/01/25 04:31:53;;;;;;;10.15;7.00;;;;;;;5.42;88.73;98178.80;119978;1144;25958;-68
2021/01/25 04:34:21;;;;;;;11.90;8.05;;;;;;;5.39;88.72;98184.71;124666;1144;23601;-69
2021/01/25 04:36:48;;;;;;;12.05;9.00;;;;;;;5.40;88.61;98189.05;124667;1144;22744;-69
2021/01/25 04:39:15;;;;;;;12.70;9.10;;;;;;;5.41;89.25;98179.87;124641;1143;22705;-67
2021/01/25 04:41:43;;;;;;;9.20;6.50;;;;;;;5.41;88.60;98174.47;124493;1142;22688;-69
2021/01/25 04:44:11;;;;;;;9.90;6.95;;;;;;;5.41;89.16;98175.28;124772;1142;22690;-69
2021/01/25 04:46:38;;;;;;;8.35;6.90;;;;;;;5.42;89.23;98165.30;124551;1143;22671;-69
2021/01/25 04:49:06;;;;;;;11.05;7.15;;;;;;;5.42;89.05;98158.01;124845;1143;22677;-69
2021/01/25 04:51:34;;;;;;;9.70;7.05;;;;;;;5.41;89.13;98161.78;124520;1144;22801;-69
2021/01/25 04:54:01;;;;;;;10.50;7.15;;;;;;;5.40;88.60;98165.55;124621;1144;22794;-69
2021/01/25 04:56:29;;;;;;;10.20;7.17;;;;;;;5.39;88.78;98171.20;124513;1143;22691;-69
2021/01/25 04:58:56;;;;;;;11.30;7.90;;;;;;;5.36;88.88;98169.02;124409;1144;22707;-69
2021/01/25 05:01:23;;;;;;;10.37;6.43;;;;;;;5.36;89.38;98161.73;124619;1143;23283;-69
2021/01/25 05:03:51;;;;;;;9.25;6.70;;;;;;;5.34;88.93;98163.87;124731;1142;22709;-69
2021/01/25 05:06:19;;;;;;;9.50;7.00;;;;;;;5.32;88.77;98150.66;124472;1143;24144;-69
2021/01/25 05:08:46;;;;;;;9.70;7.20;;;;;;;5.33;88.46;98159.57;124591;1142;22698;-69
2021/01/25 05:11:18;;;;;;;15.90;7.90;;;;;;;5.34;88.68;98158.47;124560;1143;22715;-69
2021/01/25 05:13:45;;;;;;;10.30;7.07;;;;;;;5.30;88.51;98155.48;124720;1143;22784;-67
2021/01/25 05:16:17;;;;;;;11.00;7.30;;;;;;;5.29;88.91;98151.16;124649;1144;23534;-67
2021/01/25 05:18:46;;;;;;;10.90;8.37;;;;;;;5.29;89.04;98151.16;124430;1144;22755;-67
2021/01/25 05:21:16;;;;;;;13.20;8.15;;;;;;;5.32;88.71;98155.23;124723;1143;23519;-68
2021/01/25 05:23:43;;;;;;;11.60;7.20;;;;;;;5.30;88.73;98158.19;124571;1143;22723;-68
2021/01/25 05:26:10;;;;;;;10.95;7.05;;;;;;;5.33;89.38;98160.38;124649;1144;22686;-67
2021/01/25 05:28:41;;;;;;;12.90;8.27;;;;;;;5.36;89.18;98166.31;124417;1143;22668;-67
2021/01/25 05:31:20;;;;;;;11.33;7.20;;;;;;;5.36;88.82;98179.82;124594;1144;22687;-68
2021/01/25 05:33:48;;;;;;;10.80;7.00;;;;;;;5.35;89.10;98181.70;124622;1143;22765;-68
2021/01/25 05:36:29;;;;;;;10.93;7.37;;;;;;;5.33;89.11;98181.98;124800;1144;22672;-67
2021/01/25 05:38:57;;;;;;;10.13;7.23;;;;;;;5.32;88.96;98184.94;124566;1144;22688;-68
2021/01/25 05:41:25;;;;;;;11.05;7.40;;;;;;;5.31;88.34;98191.41;124680;1143;22689;-68
2021/01/25 05:43:52;;;;;;;10.90;6.67;;;;;;;5.29;88.35;98188.97;124386;1144;22680;-68
2021/01/25 05:46:20;;;;;;;10.50;7.70;;;;;;;5.29;88.46;98188.15;124616;1144;22731;-68
2021/01/25 05:48:57;;;;;;;9.30;6.65;;;;;;;5.27;88.33;98191.10;124494;1144;22664;-68
2021/01/25 05:51:30;;;;;;;10.00;7.10;;;;;;;5.25;88.55;98184.33;124738;1142;22807;-68
2021/01/25 05:54:00;;;;;;;9.30;7.10;;;;;;;5.25;88.35;98189.72;124365;1144;22783;-68
2021/01/25 05:56:27;;;;;;;10.40;7.80;;;;;;;5.25;88.73;98192.42;124808;1143;22725;-68
2021/01/25 05:58:55;;;;;;;9.00;6.65;;;;;;;5.24;88.45;98202.41;124430;1143;22700;-69
2021/01/25 06:01:23;;;;;;;10.70;7.10;;;;;;;5.23;88.08;98194.56;124737;1143;22669;-68
2021/01/25 06:03:51;;;;;;;10.10;7.50;;;;;;;5.24;88.38;98188.09;124563;1144;23167;-68
2021/01/25 06:06:29;;;;;;;10.50;6.63;;;;;;;5.25;88.76;98177.04;124611;1142;23400;-68
2021/01/25 06:09:03;;;;;;;9.53;6.90;;;;;;;5.28;88.59;98175.72;124518;1144;22704;-68
2021/01/25 06:11:31;;;;;;;9.00;7.10;;;;;;;5.27;88.02;98168.69;124665;1142;22750;-68
2021/01/25 06:14:23;;;;;;;10.00;7.10;;;;;;;5.26;88.28;98173.27;124443;1144;22829;-68
2021/01/25 06:16:51;;;;;;;10.53;7.37;;;;;;;5.27;88.32;98176.78;124764;1144;22679;-68
2021/01/25 06:19:20;;;;;;;10.80;7.55;;;;;;;5.25;88.51;98171.64;124475;1144;22706;-67
2021/01/25 06:21:48;;;;;;;9.80;7.20;;;;;;;5.25;88.23;98162.72;124653;1144;22713;-68
2021/01/25 06:24:16;;;;;;;9.80;7.50;;;;;;;5.24;88.30;98161.91;124533;1144;22689;-68
2021/01/25 06:26:45;;;;;;;10.23;7.50;;;;;;;5.25;88.00;98150.03;124577;1144;22804;-68
2021/01/25 06:29:15;;;;;;;20.70;13.95;;;;;;;5.25;87.63;98147.34;124570;1142;22696;-67
2021/01/25 06:31:42;;;;;;;13.30;8.37;;;;;;;5.24;87.58;98145.70;124678;1143;22717;-68
2021/01/25 06:34:10;;;;;;;15.05;9.45;;;;;;;5.23;87.99;98141.37;124732;1144;22741;-68
2021/01/25 06:36:39;;;;;;;11.70;8.30;;;;;;;5.23;87.93;98157.58;124596;1143;22758;-66
2021/01/25 06:39:07;;;;;;;13.35;8.60;;;;;;;5.21;87.91;98167.00;124564;1143;22695;-65
2021/01/25 06:41:44;;;;;;;19.15;11.05;;;;;;;5.19;87.50;98164.58;124408;1144;22689;-65
2021/01/25 06:44:11;;;;;;;13.20;9.77;;;;;;;5.18;87.73;98172.94;124587;1143;22701;-64
2021/01/25 06:46:39;;;;;;;13.75;8.20;;;;;;;5.15;87.61;98168.04;124439;1143;24179;-65
2021/01/25 06:49:09;;;;;;;10.83;8.33;;;;;;;5.15;87.39;98176.95;124588;1144;23508;-66
2021/01/25 06:51:40;;;;;;;9.80;6.80;;;;;;;5.13;88.26;98172.88;124503;1143;22741;-63
2021/01/25 06:54:09;;;;;;;11.95;7.25;;;;;;;5.13;87.63;98176.39;124650;1144;22743;-64
2021/01/25 06:56:51;;;;;;;21.17;11.60;;;;;;;5.14;87.41;98169.11;124437;1142;22867;-64
2021/01/25 06:59:30;;;;;;;12.05;8.75;;;;;;;5.15;87.79;98165.34;124762;1143;22701;-65
2021/01/25 07:01:58;;;;;;;10.05;6.95;;;;;;;5.13;87.84;98165.59;124461;1144;23485;-64
2021/01/25 07:04:29;;;;;;;11.35;7.20;;;;;;;5.11;87.79;98158.81;124712;1144;22702;-64
2021/01/25 07:06:57;;;;;;;11.15;7.55;;;;;;;5.08;87.36;98164.72;124539;1144;23306;-65
2021/01/25 07:09:30;;;;;;;11.15;7.45;;;;;;;5.05;87.01;98166.04;124519;1144;22704;-64
2021/01/25 07:11:59;;;;;;;10.05;8.00;;;;;;;5.04;87.25;98160.92;124413;1143;24127;-64
2021/01/25 07:14:29;;;;;;;11.40;6.80;;;;;;;5.03;86.92;98170.09;124626;1143;22721;-65
2021/01/25 07:16:57;;;;;;;12.65;8.00;;;;;;;5.02;87.34;98158.48;124462;1144;23350;-64
2021/01/25 07:19:25;;;;;;;8.40;6.45;;;;;;;5.01;86.68;98181.14;124652;1143;22687;-65
2021/01/25 07:21:53;;;;;;;10.33;6.73;;;;;;;4.97;87.21;98163.81;124552;1142;22700;-64
2021/01/25 07:24:25;;;;;;;10.75;8.05;;;;;;;4.95;87.28;98169.47;124715;1144;23524;-65
2021/01/25 07:26:57;;;;;;;11.50;7.70;;;;;;;4.94;87.11;98170.53;124599;1144;22745;-65
2021/01/25 07:29:25;;;;;;;10.53;7.03;;;;;;;4.94;87.20;98165.13;124726;1144;23830;-64
2021/01/25 07:31:53;;;;;;;10.65;7.10;;;;;;;4.96;87.43;98157.60;124339;1144;22708;-64
2021/01/25 07:34:21;;;;;;;10.55;6.70;;;;;;;4.96;87.53;98146.80;124714;1144;22712;-64
2021/01/25 07:36:49;;;;;;;7.90;6.30;;;;;;;4.97;86.80;98153.83;124401;1143;22686;-66
2021/01/25 07:39:17;;;;;;;11.50;7.30;;;;;;;5.00;87.08;98154.40;124588;1144;22736;-65
2021/01/25 07:41:44;;;;;;;10.05;6.70;;;;;;;5.02;86.65;98149.56;124703;1143;22678;-66
2021/01/25 07:44:13;;;;;;;9.70;7.40;;;;;;;5.02;86.87;98153.08;124461;1144;23467;-65
2021/01/25 07:46:44;;;;;;;9.75;7.00;;;;;;;5.02;86.55;98147.68;124645;1142;22668;-64
2021/01/25 07:49:13;;;;;;;22.37;13.93;;;;;;;5.03;86.84;98154.70;124495;1143;23675;-64
2021/01/25 07:51:41;;;;;;;35.70;15.60;;;;;;;5.03;86.49;98140.40;124693;1143;22692;-64
2021/01/25 07:54:15;;;;;;;13.25;7.95;;;;;;;5.02;86.97;98122.57;124420;1143;23379;-64
2021/01/25 07:56:42;;;;;;;8.70;6.50;;;;;;;5.02;87.34;98125.27;124636;1144;23322;-64
2021/01/25 07:59:17;;;;;;;11.10;7.40;;;;;;;5.03;86.76;98110.70;124601;1143;22680;-64
2021/01/25 08:01:47;;;;;;;;;;;;;;;5.07;87.14;98119.90;124591;1142;22710;-64
2021/01/25 08:04:16;;;;;;;11.00;7.08;;;;;;;5.06;86.84;98119.08;124561;1144;21404;-65
2021/01/25 08:06:45;;;;;;;10.93;7.63;;;;;;;5.08;87.35;98137.72;124685;1142;22762;-65
2021/01/25 08:09:21;;;;;;;9.50;7.60;;;;;;;5.07;86.75;98136.09;124416;1144;22697;-65
2021/01/25 08:11:48;;;;;;;10.25;7.75;;;;;;;5.08;87.11;98140.42;124683;1144;22708;-66
2021/01/25 08:14:44;;;;;;;9.55;7.15;;;;;;;5.05;86.48;98117.45;124518;1143;22960;-65
2021/01/25 08:17:32;;;;;;;10.03;7.10;;;;;;;5.05;86.85;98116.66;124476;1144;24115;-65
2021/01/25 08:20:03;;;;;;;11.07;7.23;;;;;;;5.06;86.63;98120.97;124499;1144;22690;-65
2021/01/25 08:22:42;;;;;;;9.97;6.93;;;;;;;5.06;86.69;98112.87;124723;1143;22671;-66
2021/01/25 08:25:16;;;;;;;9.30;6.95;;;;;;;5.08;87.25;98108.03;124606;1144;22716;-65
2021/01/25 08:27:53;;;;;;;11.50;8.43;;;;;;;5.11;86.89;98111.04;124620;1144;22695;-65
2021/01/25 08:30:22;;;;;;;11.08;8.13;;;;;;;5.12;86.82;98106.45;124609;1144;23514;-66
2021/01/25 08:32:51;;;;;;;13.80;9.70;;;;;;;5.11;86.57;98119.14;124641;1142;23656;-66
2021/01/25 08:35:32;;;;;;;10.95;8.25;;;;;;;5.13;86.37;98124.28;121314;1144;23009;-65
2021/01/25 08:38:11;;;;;;;14.10;8.95;;;;;;;5.15;86.40;98106.76;120018;1144;23307;-65
2021/01/25 08:40:39;;;;;;;13.13;9.90;;;;;;;5.16;86.67;98102.17;119884;1144;28345;-65
2021/01/25 08:43:17;;;;;;;14.70;9.90;;;;;;;5.16;86.62;98097.59;120304;1144;25951;-64
2021/01/25 08:45:45;;;;;;;16.40;11.25;;;;;;;5.16;86.98;98097.59;124504;1142;22706;-65
2021/01/25 08:48:13;;;;;;;17.95;12.30;;;;;;;5.18;86.48;98091.94;124683;1144;22665;-65
2021/01/25 08:50:41;;;;;;;16.40;11.75;;;;;;;5.17;87.01;98079.52;124528;1144;22690;-66
2021/01/25 08:53:11;;;;;;;15.00;11.27;;;;;;;5.15;86.51;98092.45;124822;1142;22763;-65
2021/01/25 08:55:47;;;;;;;19.40;11.15;;;;;;;5.14;86.63;98093.52;124608;1142;22706;-66
2021/01/25 08:58:31;;;;;;;16.30;11.47;;;;;;;5.13;86.34;98081.09;124695;1144;22714;-65
2021/01/25 09:00:58;;;;;;;18.37;11.60;;;;;;;5.13;85.63;98086.48;124562;1143;23153;-65
2021/01/25 09:03:26;;;;;;;20.10;11.15;;;;;;;5.13;86.30;98092.70;124709;1144;22687;-65
2021/01/25 09:05:54;;;;;;;20.03;12.13;;;;;;;5.15;86.31;98101.36;124568;1144;22689;-66
2021/01/25 09:08:26;;;;;;;17.55;12.00;;;;;;;5.13;86.40;98081.91;124890;1143;22702;-65
2021/01/25 09:10:56;;;;;;;16.95;12.25;;;;;;;5.12;86.20;98079.45;124538;1143;23504;-65
2021/01/25 09:13:23;;;;;;;24.85;13.25;;;;;;;5.12;86.64;98068.66;124640;1144;22817;-66
2021/01/25 09:15:51;;;;;;;16.20;12.00;;;;;;;5.13;86.57;98063.00;124654;1142;22739;-65
2021/01/25 09:18:18;;;;;;;16.20;11.35;;;;;;;5.12;85.94;98060.56;124571;1142;22731;-65
2021/01/25 09:20:46;;;;;;;17.30;10.67;;;;;;;5.12;85.94;98053.28;124598;1144;22686;-65
2021/01/25 09:23:14;;;;;;;18.10;10.45;;;;;;;5.12;85.67;98064.08;124655;1144;23265;-65
2021/01/25 09:25:41;;;;;;;19.77;11.97;;;;;;;5.10;86.43;98065.40;123638;1144;22932;-65
2021/01/25 09:28:09;;;;;;;16.10;11.55;;;;;;;5.10;86.50;98049.20;124520;1143;22779;-65
2021/01/25 09:30:36;;;;;;;20.10;12.87;;;;;;;5.09;86.21;98045.69;124792;1143;22742;-65
2021/01/25 09:33:04;;;;;;;22.85;13.70;;;;;;;5.11;86.58;98040.03;124620;1144;22701;-66
2021/01/25 09:35:32;;;;;;;22.30;13.73;;;;;;;5.14;86.15;98042.22;124760;1143;23368;-66
2021/01/25 09:38:00;;;;;;;19.90;12.37;;;;;;;5.13;86.89;98049.51;124654;1143;22641;-65
2021/01/25 09:40:33;;;;;;;26.60;14.90;;;;;;;5.13;86.29;98041.41;124715;1144;22688;-66
2021/01/25 09:43:01;;;;;;;22.40;12.40;;;;;;;5.14;86.79;98040.34;124557;1144;22663;-65
2021/01/25 09:45:28;;;;;;;20.70;13.75;;;;;;;5.16;86.71;98035.50;124864;1144;22702;-65
2021/01/25 09:47:56;;;;;;;22.45;14.05;;;;;;;5.16;86.06;98031.98;124597;1143;23463;-65
2021/01/25 09:50:24;;;;;;;23.60;15.60;;;;;;;5.15;86.98;98028.47;124726;1142;23317;-65
2021/01/25 09:52:52;;;;;;;27.50;14.80;;;;;;;5.17;86.29;98025.52;124669;1142;22763;-65
2021/01/25 09:55:19;;;;;;;23.95;14.20;;;;;;;5.21;86.63;98029.30;124616;1142;23753;-60
2021/01/25 09:57:46;;;;;;;24.05;13.80;;;;;;;5.22;86.90;98017.42;124570;1143;22776;-60
2021/01/25 10:00:15;;;;;;;21.45;13.15;;;;;;;5.23;86.25;98002.86;124610;1142;22676;-62
2021/01/25 10:02:43;;;;;;;23.30;15.00;;;;;;;5.22;86.57;98006.63;124681;1143;22697;-60
2021/01/25 10:05:11;;;;;;;24.80;13.85;;;;;;;5.21;87.26;98008.52;124552;1144;22713;-61
2021/01/25 10:07:38;;;;;;;24.70;15.05;;;;;;;5.19;86.40;97994.48;124468;1143;22710;-60
2021/01/25 10:10:08;;;;;;;26.90;14.35;;;;;;;5.21;86.85;97991.50;124888;1142;23303;-60
2021/01/25 10:12:37;;;;;;;22.10;13.40;;;;;;;5.20;87.12;97971.78;124607;1144;22885;-60
2021/01/25 10:15:10;;;;;;;22.15;14.15;;;;;;;5.21;86.45;97973.41;124614;1143;22704;-61
2021/01/25 10:17:37;;;;;;;19.10;12.65;;;;;;;5.21;86.69;97962.61;124700;1143;22678;-61
2021/01/25 10:20:06;;;;;;;24.40;14.45;;;;;;;5.25;87.04;97969.12;124526;1143;22683;-61
2021/01/25 10:22:33;;;;;;;21.70;13.93;;;;;;;5.27;86.47;97961.58;124597;1143;23635;-60
2021/01/25 10:25:01;;;;;;;22.30;14.00;;;;;;;5.26;87.19;97956.44;124461;1144;22688;-61
2021/01/25 10:27:29;;;;;;;20.75;13.50;;;;;;;5.27;86.57;97944.56;124638;1143;22803;-60
2021/01/25 10:29:57;;;;;;;24.20;12.55;;;;;;;5.26;87.04;97938.35;124639;1144;23638;-60
2021/01/25 10:32:25;;;;;;;20.65;12.05;;;;;;;5.25;86.70;97942.13;124675;1144;23418;-60
2021/01/25 10:34:52;;;;;;;20.97;12.73;;;;;;;5.26;86.79;97938.35;124521;1144;23718;-61
2021/01/25 10:37:20;;;;;;;18.90;11.45;;;;;;;5.25;86.99;97934.02;124622;1143;22647;-60
2021/01/25 10:39:47;;;;;;;24.50;12.47;;;;;;;5.17;86.97;97918.34;124453;1142;22677;-60
2021/01/25 10:42:15;;;;;;;21.80;13.25;;;;;;;5.25;86.45;97928.63;124583;1144;23187;-61
2021/01/25 10:44:42;;;;;;;23.20;12.80;;;;;;;5.24;86.65;97921.59;124615;1144;23368;-60
2021/01/25 10:47:14;;;;;;;22.53;11.10;;;;;;;5.24;86.68;97915.38;124767;1142;22704;-60
2021/01/25 10:49:42;;;;;;;19.30;10.15;;;;;;;5.25;86.36;97917.02;124550;1144;23391;-60
2021/01/25 10:52:09;;;;;;;17.40;9.80;;;;;;;5.26;87.00;97915.94;124750;1143;23502;-60
2021/01/25 10:54:37;;;;;;;16.45;10.20;;;;;;;5.26;86.50;97914.05;124638;1143;23475;-61
2021/01/25 10:57:05;;;;;;;16.85;10.20;;;;;;;5.28;86.85;97901.10;124631;1143;22713;-60
2021/01/25 10:59:33;;;;;;;17.90;9.20;;;;;;;5.30;87.18;97903.55;124548;1143;22765;-60
2021/01/25 11:02:02;;;;;;;16.60;9.30;;;;;;;5.32;86.77;97885.20;124643;1143;22685;-61
2021/01/25 11:04:30;;;;;;;20.85;10.75;;;;;;;5.32;87.40;97890.59;124543;1142;23687;-61
2021/01/25 11:06:57;;;;;;;19.15;10.65;;;;;;;5.34;86.85;97883.83;124512;1143;22682;-60
2021/01/25 11:09:25;;;;;;;17.20;8.95;;;;;;;5.37;87.16;97877.09;124871;1142;23684;-60
2021/01/25 11:11:52;;;;;;;16.90;8.77;;;;;;;5.37;86.83;97871.69;124504;1144;22746;-60
2021/01/25 11:14:20;;;;;;;16.13;8.10;;;;;;;5.41;87.15;97869.28;124717;1144;22723;-61
2021/01/25 11:16:47;;;;;;;12.33;7.27;;;;;;;5.42;87.41;97868.20;124533;1142;22684;-60
2021/01/25 11:19:19;;;;;;;14.20;8.07;;;;;;;5.45;87.25;97856.88;124799;1142;22768;-60
2021/01/25 11:21:46;;;;;;;16.77;8.43;;;;;;;5.47;86.87;97850.14;124562;1144;22823;-60
2021/01/25 11:24:13;;;;;;;15.75;8.60;;;;;;;5.49;87.31;97841.74;124649;1144;22699;-61
2021/01/25 11:26:41;;;;;;;12.90;8.00;;;;;;;5.51;87.19;97828.79;124531;1144;23676;-60
2021/01/25 11:30:32;;;;;;;14.60;8.15;;;;;;;5.54;87.10;97839.06;120122;1148;22926;-60
2021/01/25 11:32:59;;;;;;;13.00;7.80;;;;;;;5.57;87.58;97843.94;124151;1147;22768;-60
2021/01/25 11:35:27;;;;;;;17.30;8.90;;;;;;;5.60;86.91;97840.72;124278;1147;22661;-60